createdAt,value
2022-12-13T00:01:57.697Z,70.64
2022-12-13T00:04:24.986Z,69.69
2022-12-13T00:06:54.247Z,70.49
2022-12-13T00:09:21.967Z,70.45
2022-12-13T00:11:48.608Z,70.12
2022-12-13T00:14:15.464Z,69.88
2022-12-13T00:16:45.739Z,69.96
2022-12-13T00:19:12.521Z,69.07
2022-12-13T00:21:38.976Z,68.46
2022-12-13T00:24:07.150Z,68.61
2022-12-13T00:26:34.133Z,68.60
2022-12-13T00:29:04.836Z,70.03
2022-12-13T00:34:20.886Z,69.54
2022-12-13T00:36:48.435Z,68.64
2022-12-13T00:39:16.563Z,68.33
2022-12-13T00:41:44.027Z,67.63
2022-12-13T00:44:12.029Z,67.45
2022-12-13T00:46:39.642Z,68.61
2022-12-13T00:49:06.192Z,69.04
2022-12-13T00:51:34.385Z,67.90
2022-12-13T00:54:01.776Z,67.24
2022-12-13T00:56:30.847Z,67.67
2022-12-13T00:58:57.561Z,67.73
2022-12-13T01:01:27.436Z,68.66
2022-12-13T01:03:55.376Z,68.42
2022-12-13T01:06:30.011Z,67.51
2022-12-13T01:08:56.768Z,67.36
2022-12-13T01:11:23.609Z,67.89
2022-12-13T01:13:50.064Z,67.32
2022-12-13T01:16:16.680Z,67.57
2022-12-13T01:18:43.281Z,67.06
2022-12-13T01:21:15.260Z,67.12
2022-12-13T01:23:42.615Z,66.41
2022-12-13T01:26:12.184Z,66.17
2022-12-13T01:28:38.877Z,67.79
2022-12-13T01:31:09.270Z,68.70
2022-12-13T01:33:35.902Z,67.78
2022-12-13T01:36:05.871Z,68.25
2022-12-13T01:38:37.698Z,67.80
2022-12-13T01:41:17.063Z,67.06
2022-12-13T01:43:44.782Z,66.70
2022-12-13T01:46:12.035Z,66.73
2022-12-13T01:48:44.515Z,66.87
2022-12-13T01:51:13.473Z,67.43
2022-12-13T01:53:41.155Z,66.83
2022-12-13T01:56:11.058Z,67.15
2022-12-13T01:58:38.504Z,66.94
2022-12-13T02:01:05.437Z,66.75
2022-12-13T02:03:33.188Z,65.90
2022-12-13T02:06:07.435Z,65.60
2022-12-13T02:08:36.118Z,65.47
2022-12-13T02:11:03.539Z,65.50
2022-12-13T02:13:29.999Z,66.75
2022-12-13T02:16:06.607Z,65.58
2022-12-13T02:18:48.721Z,65.68
2022-12-13T02:21:41.176Z,65.07
2022-12-13T02:24:30.864Z,65.68
2022-12-13T02:27:09.610Z,65.84
2022-12-13T02:29:51.153Z,66.32
2022-12-13T02:32:32.114Z,65.47
2022-12-13T02:35:17.818Z,66.15
2022-12-13T02:38:03.256Z,66.57
2022-12-13T02:40:37.781Z,66.48
2022-12-13T02:43:12.264Z,66.71
2022-12-13T02:45:44.572Z,65.75
2022-12-13T02:48:12.413Z,66.59
2022-12-13T02:50:39.458Z,66.79
2022-12-13T02:53:07.423Z,67.19
2022-12-13T02:55:35.941Z,67.21
2022-12-13T02:58:02.387Z,67.54
2022-12-13T03:00:49.011Z,68.71
2022-12-13T03:03:30.636Z,67.94
2022-12-13T03:06:24.059Z,68.50
2022-12-13T03:09:10.796Z,68.20
2022-12-13T03:12:24.007Z,67.47
2022-12-13T03:15:19.398Z,67.25
2022-12-13T03:17:50.795Z,67.83
2022-12-13T03:20:23.336Z,67.97
2022-12-13T03:22:51.319Z,67.87
2022-12-13T03:25:31.773Z,68.59
2022-12-13T03:28:01.340Z,68.40
2022-12-13T03:30:29.003Z,67.98
2022-12-13T03:32:55.438Z,68.75
2022-12-13T03:35:22.791Z,68.43
2022-12-13T03:37:49.609Z,67.93
2022-12-13T03:40:16.371Z,67.79
2022-12-13T03:42:42.867Z,68.51
2022-12-13T03:45:09.666Z,69.37
2022-12-13T03:47:36.125Z,69.56
2022-12-13T03:50:25.328Z,68.14
2022-12-13T03:52:51.357Z,68.14
2022-12-13T03:55:18.678Z,67.88
2022-12-13T03:57:45.135Z,67.36
2022-12-13T04:00:12.266Z,67.79
2022-12-13T04:02:38.820Z,67.62
2022-12-13T04:05:06.132Z,68.44
2022-12-13T04:07:34.180Z,67.98
2022-12-13T04:10:01.336Z,67.89
2022-12-13T04:12:48.603Z,68.44
2022-12-13T04:15:15.988Z,69.52
2022-12-13T04:17:42.918Z,69.73
2022-12-13T04:20:17.429Z,68.98
2022-12-13T04:22:43.866Z,67.78
2022-12-13T04:25:12.348Z,67.83
2022-12-13T04:27:39.026Z,67.90
2022-12-13T04:30:06.674Z,67.81
2022-12-13T04:32:33.172Z,68.00
2022-12-13T04:35:01.358Z,68.79
2022-12-13T04:37:28.449Z,68.61
2022-12-13T04:40:00.468Z,68.04
2022-12-13T04:42:27.540Z,68.30
2022-12-13T04:44:54.415Z,67.60
2022-12-13T04:47:20.851Z,68.63
2022-12-13T04:49:48.015Z,67.95
2022-12-13T04:52:22.074Z,67.83
2022-12-13T04:54:55.917Z,69.71
2022-12-13T04:57:22.953Z,68.65
2022-12-13T04:59:49.479Z,67.98
2022-12-13T05:02:23.466Z,67.66
2022-12-13T05:04:53.581Z,68.02
2022-12-13T05:07:21.415Z,68.89
2022-12-13T05:09:47.873Z,68.27
2022-12-13T05:12:23.057Z,67.52
2022-12-13T05:14:51.550Z,67.98
2022-12-13T05:17:18.242Z,67.30
2022-12-13T05:19:44.747Z,66.54
2022-12-13T05:22:19.755Z,67.50
2022-12-13T05:24:48.033Z,67.56
2022-12-13T05:27:24.949Z,67.33
2022-12-13T05:30:03.154Z,66.81
2022-12-13T05:32:33.892Z,66.40
2022-12-13T05:35:11.700Z,66.54
2022-12-13T05:37:38.149Z,67.04
2022-12-13T05:40:05.439Z,67.08
2022-12-13T05:42:31.856Z,66.85
2022-12-13T05:44:58.339Z,67.84
2022-12-13T05:47:24.751Z,67.18
2022-12-13T05:49:52.130Z,67.42
2022-12-13T05:52:19.716Z,67.08
2022-12-13T05:54:46.184Z,66.81
2022-12-13T05:57:13.037Z,67.29
2022-12-13T05:59:39.468Z,66.41
2022-12-13T06:02:06.015Z,66.51
2022-12-13T06:04:32.673Z,67.23
2022-12-13T06:06:59.120Z,66.52
2022-12-13T06:09:25.605Z,66.02
2022-12-13T06:11:52.607Z,67.25
2022-12-13T06:14:27.891Z,67.93
2022-12-13T06:16:54.571Z,66.49
2022-12-13T06:19:21.983Z,66.57
2022-12-13T06:21:49.618Z,65.87
2022-12-13T06:24:20.947Z,66.49
2022-12-13T06:26:48.677Z,65.56
2022-12-13T06:29:24.302Z,66.36
2022-12-13T06:32:03.313Z,65.20
2022-12-13T06:34:32.520Z,65.34
2022-12-13T06:36:58.986Z,65.34
2022-12-13T06:39:32.666Z,65.31
2022-12-13T06:42:00.646Z,65.57
2022-12-13T06:44:27.114Z,65.39
2022-12-13T06:46:53.559Z,65.46
2022-12-13T06:49:38.935Z,65.00
2022-12-13T06:52:05.674Z,65.40
2022-12-13T06:54:32.098Z,64.93
2022-12-13T06:56:58.565Z,66.19
2022-12-13T06:59:25.014Z,64.84
2022-12-13T07:01:51.542Z,64.89
2022-12-13T07:04:30.173Z,65.04
2022-12-13T07:07:01.994Z,65.51
2022-12-13T07:09:32.665Z,66.05
2022-12-13T07:11:59.378Z,66.72
2022-12-13T07:14:25.918Z,65.91
2022-12-13T07:16:53.775Z,65.62
2022-12-13T07:19:24.755Z,65.47
2022-12-13T07:21:52.072Z,65.50
2022-12-13T07:24:18.789Z,65.35
2022-12-13T07:26:45.266Z,65.45
2022-12-13T07:29:11.766Z,65.15
2022-12-13T07:31:38.297Z,65.43
2022-12-13T07:34:04.909Z,65.42
2022-12-13T07:36:31.464Z,65.19
2022-12-13T07:38:58.492Z,64.88
2022-12-13T07:41:26.157Z,65.62
2022-12-13T07:43:54.816Z,65.71
2022-12-13T07:46:25.969Z,65.77
2022-12-13T07:49:02.729Z,66.61
2022-12-13T07:51:29.280Z,66.08
2022-12-13T07:53:55.743Z,65.93
2022-12-13T07:56:22.218Z,66.13
2022-12-13T07:58:48.728Z,66.20
2022-12-13T08:01:15.206Z,65.44
2022-12-13T08:03:41.642Z,65.34
2022-12-13T08:06:12.644Z,65.83
2022-12-13T08:08:39.844Z,66.25
2022-12-13T08:11:09.047Z,66.19
2022-12-13T08:13:36.278Z,66.02
2022-12-13T08:16:28.192Z,65.08
2022-12-13T08:19:01.738Z,66.16
2022-12-13T08:21:54.579Z,65.70
2022-12-13T08:24:23.919Z,64.91
2022-12-13T08:26:50.496Z,65.80
2022-12-13T08:29:23.207Z,65.75
2022-12-13T08:32:01.655Z,65.79
2022-12-13T08:34:28.302Z,67.17
2022-12-13T08:37:02.143Z,65.70
2022-12-13T08:39:30.609Z,65.88
2022-12-13T08:42:17.123Z,65.52
2022-12-13T08:44:53.019Z,65.52
2022-12-13T08:47:22.861Z,65.39
2022-12-13T08:50:01.481Z,65.71
2022-12-13T08:52:30.387Z,65.35
2022-12-13T08:54:56.811Z,65.85
2022-12-13T08:57:23.321Z,66.04
2022-12-13T08:59:49.908Z,66.34
2022-12-13T09:02:16.616Z,66.59
2022-12-13T09:04:43.635Z,65.66
2022-12-13T09:07:10.185Z,66.51
2022-12-13T09:09:37.429Z,66.47
2022-12-13T09:12:11.038Z,67.50
2022-12-13T09:14:51.767Z,67.18
2022-12-13T09:17:24.412Z,66.95
2022-12-13T09:19:57.827Z,66.80
2022-12-13T09:22:33.186Z,66.99
2022-12-13T09:25:02.535Z,66.77
2022-12-13T09:27:30.615Z,66.70
2022-12-13T09:29:57.466Z,66.88
2022-12-13T09:32:25.252Z,67.49
2022-12-13T09:34:51.765Z,67.44
2022-12-13T09:37:23.135Z,67.10
2022-12-13T09:39:54.846Z,68.33
2022-12-13T09:42:30.192Z,68.12
2022-12-13T09:45:04.517Z,68.47
2022-12-13T09:47:35.219Z,68.49
2022-12-13T09:50:15.126Z,68.11
2022-12-13T09:52:43.237Z,68.01
2022-12-13T09:55:24.989Z,68.78
2022-12-13T09:57:52.289Z,69.55
2022-12-13T10:00:21.804Z,69.52
2022-12-13T10:02:58.344Z,69.37
2022-12-13T10:05:42.076Z,69.50
2022-12-13T10:08:18.197Z,70.33
2022-12-13T10:10:45.121Z,71.09
2022-12-13T10:13:25.681Z,70.50
2022-12-13T10:15:57.792Z,71.23
2022-12-13T10:18:44.028Z,70.84
2022-12-13T10:21:29.552Z,70.92
2022-12-13T10:24:25.242Z,71.15
2022-12-13T10:26:52.140Z,71.18
2022-12-13T10:29:18.756Z,71.59
2022-12-13T10:31:47.660Z,70.93
2022-12-13T10:34:17.094Z,71.51
2022-12-13T10:36:43.764Z,71.21
2022-12-13T10:39:34.917Z,71.06
2022-12-13T10:42:12.616Z,70.42
2022-12-13T10:44:39.078Z,70.25
2022-12-13T10:47:22.462Z,71.19
2022-12-13T10:49:59.013Z,71.68
2022-12-13T10:52:43.526Z,71.96
2022-12-13T10:55:30.921Z,72.08
2022-12-13T10:58:00.869Z,71.95
2022-12-13T11:00:32.304Z,72.66
2022-12-13T11:02:58.987Z,72.79
2022-12-13T11:05:34.039Z,73.77
2022-12-13T11:08:15.542Z,73.80
2022-12-13T11:10:42.963Z,73.84
2022-12-13T11:13:25.636Z,73.94
2022-12-13T11:15:55.809Z,73.73
2022-12-13T11:18:24.622Z,74.83
2022-12-13T11:20:57.471Z,74.92
2022-12-13T11:23:34.616Z,75.88
2022-12-13T11:26:07.052Z,75.12
2022-12-13T11:28:51.747Z,74.49
2022-12-13T11:31:21.253Z,75.47
2022-12-13T11:34:21.747Z,74.94
2022-12-13T11:36:58.864Z,75.31
2022-12-13T11:39:33.399Z,75.43
2022-12-13T11:42:05.542Z,74.13
2022-12-13T11:44:47.711Z,73.54
2022-12-13T11:47:20.883Z,73.82
2022-12-13T11:49:48.033Z,73.66
2022-12-13T11:52:20.204Z,74.55
2022-12-13T11:54:59.961Z,75.43
2022-12-13T11:57:51.100Z,75.90
2022-12-13T12:00:33.587Z,75.80
2022-12-13T12:03:17.079Z,74.57
2022-12-13T12:05:55.985Z,74.67
2022-12-13T12:08:54.069Z,75.16
2022-12-13T12:11:28.033Z,74.12
2022-12-13T12:13:59.230Z,73.86
2022-12-13T12:16:31.152Z,73.47
2022-12-13T12:19:01.401Z,75.07
2022-12-13T12:22:13.178Z,74.35
2022-12-13T12:25:02.048Z,74.10
2022-12-13T12:27:50.054Z,73.66
2022-12-13T12:30:55.651Z,74.39
2022-12-13T12:33:39.449Z,73.98
2022-12-13T12:36:22.155Z,72.91
2022-12-13T12:38:57.918Z,72.70
2022-12-13T12:41:45.968Z,72.78
2022-12-13T12:44:19.883Z,72.33
2022-12-13T12:47:31.632Z,72.62
2022-12-13T12:50:10.986Z,71.45
2022-12-13T12:53:25.487Z,71.15
2022-12-13T12:56:17.399Z,71.72
2022-12-13T12:58:51.781Z,72.08
2022-12-13T13:01:25.705Z,72.75
2022-12-13T13:03:54.072Z,72.15
2022-12-13T13:06:40.034Z,72.14
2022-12-13T13:09:08.772Z,73.74
2022-12-13T13:11:42.812Z,74.89
2022-12-13T13:14:31.546Z,74.99
2022-12-13T13:17:23.639Z,71.90
2022-12-13T13:20:00.040Z,73.02
2022-12-13T13:22:43.527Z,72.81
2022-12-13T13:25:31.186Z,73.49
2022-12-13T13:28:06.500Z,71.09
2022-12-13T13:30:33.341Z,71.64
2022-12-13T13:32:59.873Z,71.12
2022-12-13T13:35:36.146Z,71.48
2022-12-13T13:38:06.992Z,71.87
2022-12-13T13:40:38.350Z,71.19
2022-12-13T13:43:16.508Z,71.88
2022-12-13T13:45:57.220Z,72.38
2022-12-13T13:48:51.834Z,73.58
2022-12-13T13:55:10.770Z,72.37
2022-12-13T13:58:08.752Z,72.71
2022-12-13T14:00:58.244Z,74.21
2022-12-13T14:04:02.869Z,74.09
2022-12-13T14:06:53.293Z,72.66
2022-12-13T14:09:46.206Z,74.06
2022-12-13T14:12:15.693Z,72.42
2022-12-13T14:15:01.186Z,73.84
2022-12-13T14:17:52.783Z,73.70
2022-12-13T14:20:39.111Z,72.91
2022-12-13T14:23:42.884Z,72.36
2022-12-13T14:26:43.886Z,71.57
2022-12-13T14:29:17.293Z,71.42
2022-12-13T14:31:47.143Z,70.94
2022-12-13T14:34:43.621Z,72.05
2022-12-13T14:37:31.119Z,72.19
2022-12-13T14:39:58.844Z,72.23
2022-12-13T14:42:33.731Z,73.14
2022-12-13T14:45:18.786Z,74.78
2022-12-13T14:47:45.435Z,73.16
2022-12-13T14:50:18.422Z,73.63
2022-12-13T14:52:55.279Z,73.02
2022-12-13T14:55:36.359Z,73.54
2022-12-13T14:58:19.359Z,73.28
2022-12-13T15:00:46.102Z,73.81
2022-12-13T15:03:22.427Z,72.77
2022-12-13T15:06:00.536Z,73.65
2022-12-13T15:08:27.449Z,72.89
2022-12-13T15:11:03.079Z,72.67
2022-12-13T15:13:44.419Z,73.87
2022-12-13T15:16:25.718Z,75.12
2022-12-13T15:19:32.026Z,74.30
2022-12-13T15:22:05.924Z,73.38
2022-12-13T15:24:38.183Z,74.40
2022-12-13T15:27:04.970Z,73.12
2022-12-13T15:29:33.265Z,74.25
2022-12-13T15:32:01.168Z,72.97
2022-12-13T15:34:28.563Z,74.00
2022-12-13T15:37:04.105Z,72.88
2022-12-13T15:39:31.296Z,74.83
2022-12-13T15:41:58.264Z,72.81
2022-12-13T15:44:39.558Z,74.73
2022-12-13T15:47:28.828Z,75.32
2022-12-13T15:50:03.693Z,73.38
2022-12-13T15:52:39.204Z,74.04
2022-12-13T15:55:05.684Z,76.29
2022-12-13T15:57:34.463Z,75.09
2022-12-13T16:00:15.255Z,75.40
2022-12-13T16:03:13.615Z,74.82
2022-12-13T16:05:51.615Z,75.99
2022-12-13T16:08:33.150Z,75.57
2022-12-13T16:11:00.319Z,74.80
2022-12-13T16:13:39.145Z,74.81
2022-12-13T16:16:27.059Z,75.96
2022-12-13T16:18:59.207Z,76.19
2022-12-13T16:21:26.882Z,74.28
2022-12-13T16:23:53.843Z,74.62
2022-12-13T16:26:28.795Z,74.40
2022-12-13T16:28:58.727Z,74.69
2022-12-13T16:31:35.853Z,73.39
2022-12-13T16:34:03.975Z,74.40
2022-12-13T16:36:30.566Z,74.26
2022-12-13T16:38:58.110Z,73.59
2022-12-13T16:41:25.139Z,73.10
2022-12-13T16:44:00.587Z,74.12
2022-12-13T16:47:14.280Z,74.65
2022-12-13T16:49:28.577Z,74.60
2022-12-13T16:51:55.946Z,74.13
2022-12-13T16:54:23.687Z,72.50
2022-12-13T16:56:51.308Z,72.74
2022-12-13T16:59:19.892Z,74.72
2022-12-13T17:01:47.505Z,76.06
2022-12-13T17:04:20.535Z,73.70
2022-12-13T17:06:54.492Z,74.37
2022-12-13T17:09:22.659Z,75.42
2022-12-13T17:11:49.202Z,76.39
2022-12-13T17:14:21.981Z,75.60
2022-12-13T17:16:48.556Z,76.35
2022-12-13T17:19:15.786Z,76.31
2022-12-13T17:21:42.436Z,75.96
2022-12-13T17:24:08.931Z,73.69
2022-12-13T17:26:35.676Z,74.43
2022-12-13T17:29:02.203Z,74.49
2022-12-13T17:31:36.103Z,74.96
2022-12-13T17:34:04.114Z,73.69
2022-12-13T17:36:31.587Z,75.72
2022-12-13T17:38:58.441Z,74.42
2022-12-13T17:41:25.935Z,76.56
2022-12-13T17:43:52.611Z,76.38
2022-12-13T17:46:19.482Z,75.20
2022-12-13T17:48:47.371Z,75.51
2022-12-13T17:51:18.275Z,77.17
2022-12-13T17:53:44.834Z,75.62
2022-12-13T17:56:15.860Z,76.71
2022-12-13T17:58:42.739Z,75.42
2022-12-13T18:01:20.430Z,75.22
2022-12-13T18:03:48.880Z,76.31
2022-12-13T18:06:18.840Z,75.44
2022-12-13T18:08:46.678Z,74.90
2022-12-13T18:11:33.627Z,76.13
2022-12-13T18:14:01.879Z,75.52
2022-12-13T18:16:36.971Z,74.43
2022-12-13T18:19:09.082Z,77.01
2022-12-13T18:21:36.915Z,74.90
2022-12-13T18:24:04.208Z,76.70
2022-12-13T18:26:31.770Z,77.75
2022-12-13T18:28:58.414Z,77.00
2022-12-13T18:31:25.299Z,76.23
2022-12-13T18:33:53.310Z,74.49
2022-12-13T18:36:21.120Z,73.55
2022-12-13T18:38:48.147Z,75.32
2022-12-13T18:41:21.100Z,74.81
2022-12-13T18:43:47.922Z,77.67
2022-12-13T18:46:15.828Z,76.56
2022-12-13T18:48:43.789Z,77.61
2022-12-13T18:51:10.831Z,78.31
2022-12-13T18:53:38.326Z,75.67
2022-12-13T18:56:09.579Z,76.65
2022-12-13T18:58:47.359Z,78.25
2022-12-13T19:01:15.736Z,77.24
2022-12-13T19:03:46.991Z,77.37
2022-12-13T19:06:19.101Z,76.67
2022-12-13T19:08:51.457Z,75.39
2022-12-13T19:11:18.860Z,76.46
2022-12-13T19:13:45.534Z,77.09
2022-12-13T19:16:14.639Z,76.33
2022-12-13T19:18:42.561Z,76.51
2022-12-13T19:21:12.521Z,77.36
2022-12-13T19:23:40.794Z,77.93
2022-12-13T19:26:13.320Z,78.38
2022-12-13T19:28:41.577Z,78.85
2022-12-13T19:31:10.089Z,77.19
2022-12-13T19:33:36.683Z,77.96
2022-12-13T19:36:03.875Z,77.76
2022-12-13T19:38:30.641Z,79.47
2022-12-13T19:40:59.374Z,78.04
2022-12-13T19:43:27.484Z,79.09
2022-12-13T19:45:56.359Z,78.95
2022-12-13T19:48:23.009Z,79.11
2022-12-13T19:51:05.370Z,78.39
2022-12-13T19:53:32.811Z,79.37
2022-12-13T19:56:01.400Z,79.75
2022-12-13T19:58:28.193Z,80.58
2022-12-13T20:01:01.344Z,79.55
2022-12-13T20:03:28.345Z,80.93
2022-12-13T20:05:58.905Z,79.40
2022-12-13T20:08:25.629Z,78.34
2022-12-13T20:11:13.225Z,78.79
2022-12-13T20:13:39.898Z,78.10
2022-12-13T20:16:06.992Z,76.84
2022-12-13T20:18:34.274Z,77.45
2022-12-13T20:21:11.497Z,77.84
2022-12-13T20:23:38.968Z,78.32
2022-12-13T20:26:08.568Z,78.16
2022-12-13T20:28:35.147Z,77.16
2022-12-13T20:31:08.934Z,78.32
2022-12-13T20:33:35.780Z,77.25
2022-12-13T20:36:26.163Z,78.45
2022-12-13T20:38:55.988Z,79.58
2022-12-13T20:41:23.678Z,77.93
2022-12-13T20:43:55.004Z,78.98
2022-12-13T20:46:22.844Z,78.13
2022-12-13T20:48:50.335Z,78.24
2022-12-13T20:51:19.519Z,76.95
2022-12-13T20:53:48.268Z,75.68
2022-12-13T20:56:17.545Z,76.15
2022-12-13T20:58:44.379Z,76.17
2022-12-13T21:01:25.327Z,75.29
2022-12-13T21:03:57.127Z,75.46
2022-12-13T21:06:24.117Z,76.10
2022-12-13T21:09:00.054Z,75.72
2022-12-13T21:11:38.592Z,75.59
2022-12-13T21:14:25.261Z,75.08
2022-12-13T21:17:00.029Z,75.95
2022-12-13T21:19:38.895Z,76.94
2022-12-13T21:22:06.393Z,77.26
2022-12-13T21:24:32.864Z,77.33
2022-12-13T21:26:59.925Z,77.32
2022-12-13T21:29:26.384Z,78.58
2022-12-13T21:31:54.690Z,77.40
2022-12-13T21:34:22.414Z,77.45
2022-12-13T21:36:52.097Z,77.13
2022-12-13T21:39:20.189Z,77.46
2022-12-13T21:41:46.786Z,77.42
2022-12-13T21:44:16.366Z,76.82
2022-12-13T21:49:30.101Z,77.19
2022-12-13T21:51:56.546Z,77.05
2022-12-13T21:54:23.074Z,78.73
2022-12-13T21:57:08.077Z,77.04
2022-12-13T21:59:34.590Z,78.02
2022-12-13T22:02:18.531Z,77.06
2022-12-13T22:04:47.460Z,78.09
2022-12-13T22:07:17.032Z,78.73
2022-12-13T22:09:44.224Z,78.55
2022-12-13T22:12:29.318Z,77.95
2022-12-13T22:14:56.271Z,77.71
2022-12-13T22:17:29.706Z,77.23
2022-12-13T22:19:59.753Z,78.06
2022-12-13T22:22:26.539Z,77.28
2022-12-13T22:24:53.985Z,77.36
2022-12-13T22:27:24.197Z,77.41
2022-12-13T22:29:56.891Z,76.55
2022-12-13T22:32:25.590Z,77.47
2022-12-13T22:34:52.124Z,77.79
2022-12-13T22:37:18.589Z,76.75
2022-12-13T22:39:45.503Z,77.74
2022-12-13T22:42:12.322Z,78.33
2022-12-13T22:44:39.016Z,78.16
2022-12-13T22:47:06.693Z,77.46
2022-12-13T22:49:33.327Z,77.51
2022-12-13T22:51:59.988Z,76.97
2022-12-13T22:54:26.471Z,77.13
2022-12-13T22:56:53.618Z,76.23
2022-12-13T22:59:20.102Z,75.39
2022-12-13T23:01:47.153Z,75.92
2022-12-13T23:04:14.014Z,76.07
2022-12-13T23:06:41.379Z,76.22
2022-12-13T23:09:11.076Z,77.63
2022-12-13T23:11:56.189Z,75.06
2022-12-13T23:14:28.329Z,75.65
2022-12-13T23:16:55.137Z,76.08
2022-12-13T23:22:08.709Z,76.90
2022-12-13T23:24:35.521Z,76.23
2022-12-13T23:27:02.025Z,76.12
2022-12-13T23:29:28.462Z,75.87
2022-12-13T23:31:54.937Z,75.05
2022-12-13T23:34:21.910Z,75.94
2022-12-13T23:36:48.386Z,76.80
2022-12-13T23:39:14.839Z,76.77
2022-12-13T23:41:41.278Z,77.29
2022-12-13T23:44:07.783Z,75.66
2022-12-13T23:46:35.737Z,75.89
2022-12-13T23:49:05.335Z,76.53
2022-12-13T23:51:32.584Z,76.91
2022-12-13T23:53:59.166Z,75.79
2022-12-13T23:56:25.819Z,76.24
2022-12-13T23:58:52.324Z,76.77
